Macurure, Brazil
Current Conditions -  °F | °C
As of 10:00 AM on Friday 24 Oct 2014 (Local Time) from SBPL Reporting Station
Broken Clouds Broken Clouds  
Wind Chill: 84°   Ceiling: 3200
Heat Index: 86°   Visibility: 6mi
Dew Point: 66°   Wind: 10mph
Humidity: 55%   Direction: 150°SSE
Pressure: 30.03"   Gusts: NA
Location:  9.17°S, 39.06°W
Report Text: SBPL 241300Z 15009KT 9999 BKN032 29/19 Q1017
Loading
Personal Weather Stations






























Interactive Weather Map
Tropical Storm Tracking
New forecast layout! Learn more

10-Day Weather Forecast

Advertisements
Track Severe Weather on mobile